createdAt,value
2018-02-03T00:00:04.499Z,9.37
2018-02-03T00:02:31.674Z,4.63
2018-02-03T00:04:59.013Z,4.13
2018-02-03T00:07:26.354Z,7.70
2018-02-03T00:09:53.708Z,4.30
2018-02-03T00:12:21.031Z,9.23
2018-02-03T00:14:48.389Z,4.97
2018-02-03T00:17:15.710Z,4.10
2018-02-03T00:19:43.134Z,7.53
2018-02-03T00:22:10.461Z,4.30
2018-02-03T00:24:37.856Z,4.43
2018-02-03T00:27:05.201Z,5.00
2018-02-03T00:29:32.517Z,6.67
2018-02-03T00:31:59.870Z,5.93
2018-02-03T00:34:27.195Z,5.10
2018-02-03T00:36:54.548Z,4.77
2018-02-03T00:39:21.875Z,5.87
2018-02-03T00:41:49.229Z,5.90
2018-02-03T00:44:16.586Z,6.10
2018-02-03T00:46:43.905Z,6.53
2018-02-03T00:49:11.260Z,8.10
2018-02-03T00:51:38.591Z,5.83
2018-02-03T00:54:05.949Z,5.73
2018-02-03T00:56:33.317Z,8.27
2018-02-03T00:59:00.671Z,5.50
2018-02-03T01:01:28.103Z,5.87
2018-02-03T01:03:55.493Z,5.30
2018-02-03T01:06:22.820Z,5.90
2018-02-03T01:08:50.147Z,7.60
2018-02-03T01:11:17.504Z,6.07
2018-02-03T01:13:44.843Z,5.20
2018-02-03T01:16:12.214Z,5.23
2018-02-03T01:18:39.560Z,6.50
2018-02-03T01:21:06.943Z,6.17
2018-02-03T01:23:34.276Z,6.53
2018-02-03T01:26:01.625Z,8.30
2018-02-03T01:28:28.981Z,4.83
2018-02-03T01:30:56.362Z,5.10
2018-02-03T01:33:23.704Z,6.43
2018-02-03T01:35:51.034Z,6.60
2018-02-03T01:38:18.479Z,4.33
2018-02-03T01:40:45.801Z,4.90
2018-02-03T01:43:13.159Z,4.47
2018-02-03T01:45:40.504Z,7.10
2018-02-03T01:48:07.854Z,6.60
2018-02-03T01:50:35.249Z,5.77
2018-02-03T01:53:02.599Z,5.53
2018-02-03T01:55:29.963Z,6.10
2018-02-03T01:57:57.371Z,7.17
2018-02-03T02:00:24.826Z,8.63
2018-02-03T02:02:52.199Z,13.00
2018-02-03T02:05:19.533Z,6.40
2018-02-03T02:07:46.907Z,8.40
2018-02-03T02:10:14.232Z,7.47
2018-02-03T02:12:41.607Z,6.27
2018-02-03T02:15:08.941Z,8.50
2018-02-03T02:17:36.309Z,10.03
2018-02-03T02:20:03.643Z,5.93
2018-02-03T02:22:31.001Z,6.13
2018-02-03T02:24:58.326Z,8.60
2018-02-03T02:27:25.695Z,5.43
2018-02-03T02:29:53.021Z,8.50
2018-02-03T02:32:20.342Z,8.70
2018-02-03T02:34:47.701Z,7.27
2018-02-03T02:37:15.030Z,6.80
2018-02-03T02:39:42.380Z,8.47
2018-02-03T02:42:09.746Z,6.97
2018-02-03T02:44:37.112Z,9.17
2018-02-03T02:47:04.445Z,8.17
2018-02-03T02:49:31.802Z,7.30
2018-02-03T02:51:59.133Z,8.07
2018-02-03T02:54:26.459Z,8.77
2018-02-03T02:56:53.814Z,7.90
2018-02-03T02:59:21.237Z,8.97
2018-02-03T03:01:48.695Z,13.33
2018-02-03T03:04:16.018Z,8.83
2018-02-03T03:06:43.379Z,8.60
2018-02-03T03:09:10.708Z,9.20
2018-02-03T03:11:38.117Z,14.40
2018-02-03T03:14:05.472Z,7.47
2018-02-03T03:16:32.825Z,8.20
2018-02-03T03:19:00.175Z,8.57
2018-02-03T03:21:27.518Z,9.50
2018-02-03T03:23:54.885Z,9.60
2018-02-03T03:26:22.221Z,8.03
2018-02-03T03:28:50.417Z,9.93
2018-02-03T03:31:17.772Z,10.87
2018-02-03T03:33:45.741Z,5.73
2018-02-03T03:36:13.100Z,7.00
2018-02-03T03:38:40.438Z,6.83
2018-02-03T03:41:07.787Z,7.03
2018-02-03T03:43:35.106Z,9.63
2018-02-03T03:46:02.516Z,7.93
2018-02-03T03:48:29.851Z,11.93
2018-02-03T03:50:57.198Z,7.37
2018-02-03T03:53:24.592Z,8.45
2018-02-03T03:55:51.940Z,8.48
2018-02-03T03:58:19.306Z,10.83
2018-02-03T04:00:46.676Z,5.95
2018-02-03T04:03:14.039Z,9.73
2018-02-03T04:05:41.402Z,9.07
2018-02-03T04:08:08.762Z,7.80
2018-02-03T04:10:36.117Z,8.73
2018-02-03T04:13:03.470Z,8.95
2018-02-03T04:15:30.838Z,7.53
2018-02-03T04:17:58.170Z,11.00
2018-02-03T04:20:25.544Z,7.47
2018-02-03T04:22:52.941Z,8.30
2018-02-03T04:25:20.352Z,8.20
2018-02-03T04:27:47.727Z,8.10
2018-02-03T04:30:15.102Z,8.40
2018-02-03T04:32:42.465Z,9.50
2018-02-03T04:35:09.828Z,8.90
2018-02-03T04:37:37.254Z,8.57
2018-02-03T04:40:04.651Z,6.05
2018-02-03T04:42:32.010Z,11.20
2018-02-03T04:44:59.372Z,13.15
2018-02-03T04:47:26.718Z,7.57
2018-02-03T04:49:54.091Z,9.02
2018-02-03T04:52:21.416Z,6.55
2018-02-03T04:54:48.801Z,7.80
2018-02-03T04:57:16.133Z,8.50
2018-02-03T04:59:43.455Z,7.93
2018-02-03T05:02:10.816Z,8.75
2018-02-03T05:04:38.190Z,8.85
2018-02-03T05:07:05.545Z,8.93
2018-02-03T05:09:32.993Z,12.53
2018-02-03T05:12:00.357Z,8.97
2018-02-03T05:14:27.696Z,9.45
2018-02-03T05:16:55.062Z,7.73
2018-02-03T05:19:22.512Z,15.10
2018-02-03T05:21:49.850Z,9.73
2018-02-03T05:24:17.201Z,9.67
2018-02-03T05:26:44.552Z,10.07
2018-02-03T05:29:11.927Z,7.80
2018-02-03T05:31:39.388Z,10.40
2018-02-03T05:34:06.720Z,7.70
2018-02-03T05:36:34.069Z,8.70
2018-02-03T05:39:01.419Z,8.52
2018-02-03T05:41:28.797Z,6.83
2018-02-03T05:43:56.132Z,7.97
2018-02-03T05:46:23.573Z,7.60
2018-02-03T05:48:50.910Z,9.32
2018-02-03T05:51:18.242Z,8.87
2018-02-03T05:53:45.684Z,8.18
2018-02-03T05:56:13.119Z,10.82
2018-02-03T05:58:40.478Z,9.40
2018-02-03T06:01:07.807Z,8.13
2018-02-03T06:03:35.177Z,11.25
2018-02-03T06:06:02.523Z,10.27
2018-02-03T06:08:29.905Z,10.73
2018-02-03T06:10:57.275Z,14.05
2018-02-03T06:13:24.619Z,12.75
2018-02-03T06:15:52.085Z,15.20
2018-02-03T06:18:19.421Z,9.90
2018-02-03T06:20:46.783Z,9.95
2018-02-03T06:23:14.115Z,13.43
2018-02-03T06:25:41.478Z,15.10
2018-02-03T06:28:08.833Z,14.27
2018-02-03T06:30:36.177Z,10.05
2018-02-03T06:33:03.526Z,8.93
2018-02-03T06:35:30.853Z,11.13
2018-02-03T06:37:58.206Z,9.27
2018-02-03T06:40:25.546Z,12.37
2018-02-03T06:42:52.918Z,11.53
2018-02-03T06:45:20.293Z,14.68
2018-02-03T06:47:47.669Z,12.30
2018-02-03T06:50:15.011Z,9.65
2018-02-03T06:52:42.338Z,12.57
2018-02-03T06:55:09.767Z,10.17
2018-02-03T06:57:37.097Z,14.20
2018-02-03T07:00:04.461Z,13.23
2018-02-03T07:02:31.814Z,15.27
2018-02-03T07:04:59.255Z,12.43
2018-02-03T07:07:26.588Z,12.73
2018-02-03T07:09:53.974Z,15.25
2018-02-03T07:12:21.346Z,11.63
2018-02-03T07:14:48.686Z,12.00
2018-02-03T07:17:16.092Z,17.37
2018-02-03T07:19:43.519Z,13.03
2018-02-03T07:22:10.882Z,13.30
2018-02-03T07:24:38.234Z,13.73
2018-02-03T07:27:05.598Z,13.30
2018-02-03T07:29:33.038Z,16.73
2018-02-03T07:32:00.396Z,13.23
2018-02-03T07:34:27.741Z,20.07
2018-02-03T07:36:55.129Z,13.50
2018-02-03T07:39:22.481Z,14.63
2018-02-03T07:41:49.915Z,12.23
2018-02-03T07:44:17.282Z,14.57
2018-02-03T07:46:44.618Z,14.60
2018-02-03T07:49:12.007Z,15.73
2018-02-03T07:51:39.435Z,15.50
2018-02-03T07:54:06.802Z,11.40
2018-02-03T07:56:34.153Z,11.37
2018-02-03T07:59:01.488Z,10.73
2018-02-03T08:01:28.866Z,11.70
2018-02-03T08:03:56.210Z,9.73
2018-02-03T08:06:23.595Z,10.93
2018-02-03T08:08:50.927Z,9.70
2018-02-03T08:11:18.303Z,11.70
2018-02-03T08:13:45.667Z,15.98
2018-02-03T08:16:13.023Z,11.90
2018-02-03T08:18:40.363Z,10.25
2018-02-03T08:21:07.767Z,13.18
2018-02-03T08:23:35.093Z,12.93
2018-02-03T08:26:02.426Z,9.37
2018-02-03T08:28:29.779Z,10.20
2018-02-03T08:30:57.110Z,10.83
2018-02-03T08:33:24.877Z,10.65
2018-02-03T08:35:52.242Z,11.20
2018-02-03T08:38:19.832Z,9.45
2018-02-03T08:40:47.206Z,11.80
2018-02-03T08:43:14.534Z,12.30
2018-02-03T08:45:41.917Z,12.75
2018-02-03T08:48:09.246Z,8.43
2018-02-03T08:50:36.603Z,11.40
2018-02-03T08:53:03.929Z,9.57
2018-02-03T08:55:31.298Z,10.25
2018-02-03T08:57:58.629Z,12.50
2018-02-03T09:00:25.994Z,12.60
2018-02-03T09:02:53.342Z,10.80
2018-02-03T09:05:20.688Z,12.65
2018-02-03T09:07:48.053Z,14.90
2018-02-03T09:10:15.385Z,10.43
2018-02-03T09:12:42.759Z,14.40
2018-02-03T09:15:10.094Z,9.90
2018-02-03T09:17:37.460Z,10.27
2018-02-03T09:20:04.789Z,13.13
2018-02-03T09:22:32.153Z,12.00
2018-02-03T09:24:59.485Z,15.03
2018-02-03T09:27:26.875Z,16.27
2018-02-03T09:29:54.211Z,12.33
2018-02-03T09:32:21.574Z,12.27
2018-02-03T09:34:48.933Z,14.43
2018-02-03T09:37:16.268Z,13.20
2018-02-03T09:39:43.622Z,13.37
2018-02-03T09:42:10.987Z,13.90
2018-02-03T09:44:38.359Z,14.00
2018-02-03T09:47:05.698Z,13.97
2018-02-03T09:49:33.028Z,10.47
2018-02-03T09:52:00.412Z,10.07
2018-02-03T09:54:27.741Z,14.80
2018-02-03T09:56:55.096Z,14.40
2018-02-03T09:59:22.704Z,10.90
2018-02-03T10:01:50.179Z,10.10
2018-02-03T10:04:17.515Z,11.40
2018-02-03T10:06:44.860Z,14.43
2018-02-03T10:09:12.226Z,14.80
2018-02-03T10:11:39.562Z,10.33
2018-02-03T10:14:06.938Z,10.30
2018-02-03T10:16:34.297Z,14.40
2018-02-03T10:19:01.661Z,11.40
2018-02-03T10:21:29.021Z,10.63
2018-02-03T10:23:56.350Z,11.67
2018-02-03T10:26:23.705Z,12.67
2018-02-03T10:28:51.034Z,13.30
2018-02-03T10:31:18.424Z,9.50
2018-02-03T10:33:46.357Z,11.20
2018-02-03T10:36:13.725Z,10.17
2018-02-03T10:38:41.053Z,10.33
2018-02-03T10:41:08.391Z,12.40
2018-02-03T10:43:35.751Z,11.50
2018-02-03T10:46:03.089Z,10.00
2018-02-03T10:48:30.445Z,10.87
2018-02-03T10:50:57.768Z,8.10
2018-02-03T10:53:25.135Z,12.53
2018-02-03T10:55:52.461Z,11.70
2018-02-03T10:58:19.814Z,158.23
2018-02-03T11:00:47.291Z,148.63
2018-02-03T11:03:14.647Z,126.00
2018-02-03T11:05:42.022Z,16.97
2018-02-03T11:08:09.365Z,16.20
2018-02-03T11:10:36.742Z,13.53
2018-02-03T11:13:04.089Z,13.80
2018-02-03T11:15:31.478Z,12.87
2018-02-03T11:17:58.825Z,14.67
2018-02-03T11:20:26.196Z,12.83
2018-02-03T11:22:53.561Z,60.63
2018-02-03T11:25:20.903Z,15.50
2018-02-03T11:27:48.267Z,20.33
2018-02-03T11:30:15.614Z,78.50
2018-02-03T11:32:43.020Z,32.20
2018-02-03T11:35:10.344Z,15.50
2018-02-03T11:37:37.770Z,17.13
2018-02-03T11:40:05.086Z,15.00
2018-02-03T11:42:32.461Z,16.33
2018-02-03T11:44:59.836Z,14.20
2018-02-03T11:47:27.180Z,14.90
2018-02-03T11:49:54.532Z,16.27
2018-02-03T11:52:21.861Z,12.50
2018-02-03T11:54:49.300Z,15.67
2018-02-03T11:57:16.658Z,19.13
2018-02-03T11:59:44.063Z,16.80
2018-02-03T12:02:11.948Z,15.73
2018-02-03T12:04:39.289Z,19.27
2018-02-03T12:07:06.687Z,18.27
2018-02-03T12:09:34.026Z,17.27
2018-02-03T12:12:01.391Z,12.73
2018-02-03T12:14:28.758Z,12.53
2018-02-03T12:16:56.284Z,12.33
2018-02-03T12:19:23.619Z,12.60
2018-02-03T12:21:50.953Z,17.27
2018-02-03T12:24:18.315Z,15.00
2018-02-03T12:26:45.653Z,13.10
2018-02-03T12:29:13.022Z,13.70
2018-02-03T12:31:40.357Z,13.23
2018-02-03T12:34:07.711Z,14.03
2018-02-03T12:36:35.042Z,12.93
2018-02-03T12:39:02.406Z,13.00
2018-02-03T12:41:29.767Z,13.70
2018-02-03T12:43:57.110Z,14.53
2018-02-03T12:46:24.468Z,14.03
2018-02-03T12:48:51.808Z,12.33
2018-02-03T12:51:19.163Z,9.93
2018-02-03T12:53:46.489Z,10.13
2018-02-03T12:56:14.110Z,10.13
2018-02-03T12:58:41.436Z,13.00
2018-02-03T13:01:08.774Z,13.13
2018-02-03T13:03:37.122Z,13.00
2018-02-03T13:06:04.474Z,11.13
2018-02-03T13:08:31.829Z,12.87
2018-02-03T13:10:59.164Z,12.57
2018-02-03T13:13:26.522Z,9.53
2018-02-03T13:15:53.877Z,13.67
2018-02-03T13:18:21.368Z,11.70
2018-02-03T13:20:48.774Z,13.23
2018-02-03T13:23:16.134Z,13.20
2018-02-03T13:25:43.466Z,10.30
2018-02-03T13:28:10.802Z,14.13
2018-02-03T13:30:38.162Z,11.50
2018-02-03T13:33:05.518Z,12.37
2018-02-03T13:35:32.899Z,14.17
2018-02-03T13:38:00.232Z,12.10
2018-02-03T13:40:27.594Z,12.37
2018-02-03T13:42:54.927Z,11.93
2018-02-03T13:45:22.291Z,15.63
2018-02-03T13:47:49.623Z,9.17
2018-02-03T13:50:16.987Z,11.23
2018-02-03T13:52:44.329Z,9.67
2018-02-03T13:55:11.658Z,11.93
2018-02-03T13:57:39.010Z,12.23
2018-02-03T14:00:06.363Z,12.33
2018-02-03T14:02:33.726Z,15.03
2018-02-03T14:05:01.161Z,11.13
2018-02-03T14:07:28.548Z,17.47
2018-02-03T14:09:55.882Z,13.47
2018-02-03T14:12:23.214Z,9.87
2018-02-03T14:14:50.653Z,8.73
2018-02-03T14:17:17.974Z,7.90
2018-02-03T14:19:45.325Z,9.40
2018-02-03T14:22:12.653Z,9.70
2018-02-03T14:24:45.754Z,10.90
2018-02-03T14:27:13.104Z,10.23
2018-02-03T14:29:40.436Z,18.33
2018-02-03T14:32:07.794Z,11.17
2018-02-03T14:34:35.130Z,10.30
2018-02-03T14:37:02.493Z,12.43
2018-02-03T14:39:29.823Z,9.47
2018-02-03T14:41:57.182Z,12.30
2018-02-03T14:44:24.540Z,10.43
2018-02-03T14:46:51.922Z,8.73
2018-02-03T14:49:19.259Z,10.73
2018-02-03T14:51:46.589Z,13.13
2018-02-03T14:54:13.958Z,10.00
2018-02-03T14:56:41.292Z,8.50
2018-02-03T14:59:08.646Z,12.67
2018-02-03T15:01:35.982Z,12.90
2018-02-03T15:04:03.363Z,12.10
2018-02-03T15:06:30.767Z,10.60
2018-02-03T15:08:58.097Z,11.10
2018-02-03T15:11:25.464Z,12.80
2018-02-03T15:13:52.806Z,12.43
2018-02-03T15:16:20.165Z,11.77
2018-02-03T15:18:47.509Z,11.17
2018-02-03T15:21:14.882Z,11.60
2018-02-03T15:23:42.228Z,11.23
2018-02-03T15:26:09.563Z,10.30
2018-02-03T15:28:36.914Z,9.30
2018-02-03T15:31:04.353Z,10.77
2018-02-03T15:33:31.698Z,9.83
2018-02-03T15:35:59.026Z,10.17
2018-02-03T15:38:26.383Z,11.13
2018-02-03T15:40:53.722Z,13.40
2018-02-03T15:43:21.075Z,10.90
2018-02-03T15:45:49.013Z,10.93
2018-02-03T15:48:16.404Z,12.30
2018-02-03T15:50:43.741Z,10.93
2018-02-03T15:53:11.074Z,14.10
2018-02-03T15:55:38.443Z,11.40
2018-02-03T15:58:05.805Z,9.77
2018-02-03T16:00:33.168Z,10.50
2018-02-03T16:03:00.496Z,11.10
2018-02-03T16:05:27.865Z,9.13
2018-02-03T16:07:55.204Z,10.00
2018-02-03T16:10:22.531Z,11.97
2018-02-03T16:12:49.890Z,9.77
2018-02-03T16:15:17.209Z,6.77
2018-02-03T16:17:44.565Z,6.10
2018-02-03T16:20:12.347Z,6.70
2018-02-03T16:22:39.804Z,6.63
2018-02-03T16:25:07.134Z,23.07
2018-02-03T16:27:34.604Z,32.33
2018-02-03T16:30:01.935Z,10.43
2018-02-03T16:32:29.266Z,6.30
2018-02-03T16:34:56.634Z,5.90
2018-02-03T16:37:23.969Z,6.77
2018-02-03T16:39:51.321Z,6.20
2018-02-03T16:42:18.733Z,9.37
2018-02-03T16:44:46.086Z,8.63
2018-02-03T16:47:13.416Z,7.77
2018-02-03T16:49:40.765Z,6.77
2018-02-03T16:52:08.082Z,7.57
2018-02-03T16:54:35.432Z,8.00
2018-02-03T16:57:02.791Z,10.20
2018-02-03T16:59:30.216Z,8.03
2018-02-03T17:01:57.568Z,10.90
2018-02-03T17:04:24.899Z,11.60
2018-02-03T17:06:52.256Z,9.37
2018-02-03T17:09:19.590Z,12.03
2018-02-03T17:11:46.928Z,14.93
2018-02-03T17:14:14.408Z,11.77
2018-02-03T17:16:41.913Z,11.97
2018-02-03T17:19:09.602Z,18.93
2018-02-03T17:21:36.994Z,7.45
2018-02-03T17:24:04.334Z,8.37
2018-02-03T17:26:31.666Z,12.67
2018-02-03T17:28:59.146Z,15.63
2018-02-03T17:31:26.512Z,11.73
2018-02-03T17:33:53.834Z,6.40
2018-02-03T17:36:27.048Z,7.00
2018-02-03T17:38:59.982Z,8.07
2018-02-03T17:41:27.342Z,8.73
2018-02-03T17:43:54.686Z,7.33
2018-02-03T17:46:27.735Z,9.70
2018-02-03T17:48:55.093Z,9.50
2018-02-03T17:51:22.458Z,9.03
2018-02-03T17:53:49.810Z,9.77
2018-02-03T17:56:22.859Z,9.70
2018-02-03T17:58:50.208Z,10.80
2018-02-03T18:01:17.536Z,11.73
2018-02-03T18:03:45.181Z,10.93
2018-02-03T18:06:12.503Z,8.70
2018-02-03T18:08:39.829Z,8.60
2018-02-03T18:11:07.180Z,9.13
2018-02-03T18:13:34.517Z,8.10
2018-02-03T18:16:01.874Z,16.37
2018-02-03T18:18:29.367Z,20.10
2018-02-03T18:20:56.747Z,10.37
2018-02-03T18:23:24.085Z,10.60
2018-02-03T18:25:51.416Z,8.63
2018-02-03T18:28:18.790Z,9.03
2018-02-03T18:30:46.148Z,6.03
2018-02-03T18:33:13.505Z,6.83
2018-02-03T18:35:40.916Z,6.80
2018-02-03T18:38:08.275Z,6.03
2018-02-03T18:40:35.599Z,6.93
2018-02-03T18:43:02.930Z,7.60
2018-02-03T18:45:36.117Z,9.83
2018-02-03T18:48:03.437Z,5.20
2018-02-03T18:50:30.885Z,6.70
2018-02-03T18:52:58.210Z,6.93
2018-02-03T18:55:25.565Z,6.20
2018-02-03T18:57:52.910Z,5.53
2018-02-03T19:00:20.244Z,5.67
2018-02-03T19:02:47.603Z,6.07
2018-02-03T19:05:14.922Z,5.63
2018-02-03T19:07:42.321Z,6.80
2018-02-03T19:10:09.624Z,6.00
2018-02-03T19:12:37.006Z,7.47
2018-02-03T19:15:04.337Z,6.80
2018-02-03T19:17:31.730Z,7.65
2018-02-03T19:19:59.082Z,6.70
2018-02-03T19:22:26.415Z,7.22
2018-02-03T19:24:53.798Z,7.70
2018-02-03T19:27:21.127Z,7.77
2018-02-03T19:29:48.490Z,7.20
2018-02-03T19:32:15.834Z,5.50
2018-02-03T19:34:43.211Z,6.23
2018-02-03T19:37:10.605Z,8.23
2018-02-03T19:39:37.934Z,7.83
2018-02-03T19:42:05.283Z,7.30
2018-02-03T19:44:32.683Z,7.80
2018-02-03T19:47:00.099Z,8.33
2018-02-03T19:49:27.421Z,9.30
2018-02-03T19:51:54.797Z,7.63
2018-02-03T19:54:22.121Z,7.00
2018-02-03T19:56:49.448Z,8.30
2018-02-03T19:59:16.811Z,9.70
2018-02-03T20:01:44.157Z,9.70
2018-02-03T20:04:11.518Z,13.60
2018-02-03T20:06:38.896Z,9.60
2018-02-03T20:09:06.374Z,9.37
2018-02-03T20:11:33.738Z,9.03
2018-02-03T20:14:01.153Z,8.60
2018-02-03T20:16:28.610Z,10.63
2018-02-03T20:18:55.954Z,11.53
2018-02-03T20:21:23.319Z,12.70
2018-02-03T20:23:50.663Z,13.10
2018-02-03T20:26:18.066Z,11.00
2018-02-03T20:28:45.391Z,10.73
2018-02-03T20:31:12.791Z,12.03
2018-02-03T20:33:40.197Z,12.03
2018-02-03T20:36:07.613Z,12.93
2018-02-03T20:38:35.002Z,12.60
2018-02-03T20:41:02.349Z,13.60
2018-02-03T20:43:29.706Z,12.97
2018-02-03T20:45:57.044Z,14.03
2018-02-03T20:48:25.361Z,12.53
2018-02-03T20:50:52.686Z,13.60
2018-02-03T20:53:20.109Z,13.83
2018-02-03T20:55:47.460Z,17.27
2018-02-03T20:58:14.868Z,14.70
2018-02-03T21:00:42.215Z,27.47
2018-02-03T21:03:09.589Z,21.90
2018-02-03T21:05:37.046Z,19.43
2018-02-03T21:08:04.392Z,20.10
2018-02-03T21:10:31.808Z,18.00
2018-02-03T21:12:59.149Z,17.50
2018-02-03T21:15:26.531Z,19.27
2018-02-03T21:17:53.914Z,17.07
2018-02-03T21:20:21.358Z,18.07
2018-02-03T21:22:48.765Z,20.60
2018-02-03T21:25:16.185Z,21.37
2018-02-03T21:27:43.518Z,17.00
2018-02-03T21:30:10.862Z,20.50
2018-02-03T21:32:38.261Z,17.40
2018-02-03T21:35:05.603Z,18.70
2018-02-03T21:37:32.958Z,22.27
2018-02-03T21:40:00.340Z,49.20
2018-02-03T21:42:27.729Z,29.60
2018-02-03T21:44:55.120Z,37.87
2018-02-03T21:47:22.491Z,43.43
2018-02-03T21:49:49.826Z,47.83
2018-02-03T21:52:17.242Z,43.80
2018-02-03T21:54:44.576Z,42.10
2018-02-03T21:57:11.951Z,44.03
2018-02-03T21:59:39.366Z,44.93
2018-02-03T22:02:06.712Z,42.53
2018-02-03T22:04:34.170Z,38.70
2018-02-03T22:07:01.502Z,59.37
2018-02-03T22:09:28.883Z,68.70
2018-02-03T22:11:56.274Z,57.30
2018-02-03T22:14:23.733Z,60.73
2018-02-03T22:16:51.067Z,51.33
2018-02-03T22:19:18.403Z,38.83
2018-02-03T22:21:45.772Z,43.33
2018-02-03T22:24:13.118Z,39.93
2018-02-03T22:26:40.481Z,39.13
2018-02-03T22:29:07.871Z,42.77
2018-02-03T22:31:35.312Z,40.13
2018-02-03T22:34:02.662Z,43.57
2018-02-03T22:36:30.084Z,36.30
2018-02-03T22:38:57.419Z,26.37
2018-02-03T22:41:24.799Z,28.80
2018-02-03T22:43:52.170Z,22.07
2018-02-03T22:46:19.512Z,24.63
2018-02-03T22:48:46.873Z,26.17
2018-02-03T22:51:14.210Z,17.80
2018-02-03T22:53:41.573Z,23.73
2018-02-03T22:56:08.918Z,19.17
2018-02-03T22:58:36.283Z,21.30
2018-02-03T23:01:09.221Z,25.93
2018-02-03T23:03:36.652Z,21.47
2018-02-03T23:06:03.991Z,21.87
2018-02-03T23:08:31.983Z,27.03
2018-02-03T23:10:59.927Z,20.80
2018-02-03T23:13:28.585Z,19.80
2018-02-03T23:15:56.989Z,17.20
2018-02-03T23:18:25.173Z,27.27
2018-02-03T23:20:54.138Z,21.40
2018-02-03T23:23:22.383Z,13.57
2018-02-03T23:25:50.706Z,21.37
2018-02-03T23:28:18.610Z,15.07
2018-02-03T23:30:47.975Z,13.73
2018-02-03T23:33:16.478Z,15.10
2018-02-03T23:35:44.325Z,17.63
2018-02-03T23:38:12.191Z,17.37
2018-02-03T23:40:39.858Z,18.00
2018-02-03T23:43:08.135Z,18.53
2018-02-03T23:45:35.794Z,15.77
2018-02-03T23:48:04.175Z,16.83
2018-02-03T23:50:32.167Z,17.27
2018-02-03T23:52:59.647Z,19.43
2018-02-03T23:55:28.262Z,18.77
2018-02-03T23:57:55.971Z,20.40
